Address 0x49a3f6bc905cf78a8a5117035cb307ae8bd796ec

 
 
Txn Hash Method
Block
From
To
Value [Txn Fee]
0x5c05905d5eb2e10f9e54faac85090e0772f28684bc22cee33aac7392ee320c99Swap Exact ETH F...84806242021-06-21 4:47:3490 days 15 hrs ago0x49a3f6bc905cf78a8a5117035cb307ae8bd796ecOUT PancakeSwap: Router v20.446496413385648 BNB0.000675005
0x1ebc296252bde9afc957319aa38ebb9cee235acdac2142dc4aab1a1ae706f0b2Swap Exact ETH F...84750512021-06-21 0:08:3890 days 20 hrs ago0x49a3f6bc905cf78a8a5117035cb307ae8bd796ecOUT PancakeSwap: Router v21 BNB0.000599945
0xd2a38680005c71180e7e8a80ad5d83f275f6bb5b6188e3b155345a70d97cc49cSwap Exact ETH F...84735752021-06-20 22:54:5090 days 21 hrs ago0x49a3f6bc905cf78a8a5117035cb307ae8bd796ecOUT PancakeSwap: Router v20.18 BNB0.000599945
0xd4c3771b5a10a910b66c5f141c1fb6b4e3107e0278498b1b48e0b153801bb651Swap Exact ETH F...84735722021-06-20 22:54:4190 days 21 hrs ago0x49a3f6bc905cf78a8a5117035cb307ae8bd796ecOUT PancakeSwap: Router v20.065 BNB0.000599885
0xe94791bfa5d312c4447e3be1220920060c91b206a54cd691c20b8facd15ed308Swap Exact ETH F...84732122021-06-20 22:36:4190 days 21 hrs ago0x49a3f6bc905cf78a8a5117035cb307ae8bd796ecOUT PancakeSwap: Router v20.59 BNB0.000674945
0x8aeb9e708998734f2dd4efcae6ac498bf60e507fb9461c5e5f9f9cac60ed48a0Swap Exact Token...84550392021-06-20 7:27:0291 days 12 hrs ago0x49a3f6bc905cf78a8a5117035cb307ae8bd796ecOUT PancakeSwap: Router v20 BNB0.0008888
0xcd7b0d0894583aa994fc5b417bb37b6a0a1efc9ccba0619f46dc3a8f44c2741bApprove84550322021-06-20 7:26:4191 days 12 hrs ago0x49a3f6bc905cf78a8a5117035cb307ae8bd796ecOUT 0x8b42dd7f581d0eb13650e0e6d9971539fb587e140 BNB0.00022511
0xb3f192c5cdbb9d5bc4666fff63d1931f74883701d22793d8f30af9b86b6c21b6Approve84550062021-06-20 7:25:2391 days 12 hrs ago0x49a3f6bc905cf78a8a5117035cb307ae8bd796ecOUT 0xc9f910af8a596b406d5a0db385846f4fbaf57a450 BNB0.00022134
0x38c14a1290aab54508ea127e2bcb61180272940b1912f4a73d22e85f47c313bcSwap Exact ETH F...84544792021-06-20 6:59:0291 days 13 hrs ago0x49a3f6bc905cf78a8a5117035cb307ae8bd796ecOUT PancakeSwap: Router v20.18555 BNB0.000682795
0xf6e1762361edfee57a935871869f636d937e5f0b9e5a1efea9a1e91eb7e7e816Swap Exact ETH F...84538432021-06-20 6:27:1491 days 13 hrs ago0x49a3f6bc905cf78a8a5117035cb307ae8bd796ecOUT PancakeSwap: Router v20.47 BNB0.000674485
0x66edd811c0a527b1ec07ca2414abe0870f47b76128237871706626e9e3546bb8Swap Exact Token...84461112021-06-20 0:00:1991 days 20 hrs ago0x49a3f6bc905cf78a8a5117035cb307ae8bd796ecOUT PancakeSwap: Router v20 BNB0.00097299
0xcbd4516eeccfc281ab0345f9d01c773371ae626c3db1904ae1b4c3cc3da8e5f7Swap Exact ETH F...84442062021-06-19 22:24:5591 days 21 hrs ago0x49a3f6bc905cf78a8a5117035cb307ae8bd796ecOUT PancakeSwap: Router v23 BNB0.000599825
0xc09fb7cc04c73f0e9670c55f7e84e39daaac0373201788bf3a08b58053793b46Swap Exact ETH F...84437802021-06-19 22:03:3791 days 22 hrs ago0x49a3f6bc905cf78a8a5117035cb307ae8bd796ecOUT PancakeSwap: Router v20.35 BNB0.000607575
0x008100b15f0b09041971af09f327a1d599574ae44bd08ca2c8717139d6037655Swap Exact Token...84434572021-06-19 21:47:2891 days 22 hrs ago0x49a3f6bc905cf78a8a5117035cb307ae8bd796ecOUT PancakeSwap: Router v20 BNB0.00103972
0x57c8defaf8d0cf809ad929decd47178643fca9acd187c19bd734e4b7bf641cf0Approve84434412021-06-19 21:46:4091 days 22 hrs ago0x49a3f6bc905cf78a8a5117035cb307ae8bd796ecOUT 0xc3625a95ce05bdaecca787f844df5cb2cc0cfe010 BNB0.00022511
0x58a1594839e7e4e83a44c4b598842100e58a3bc037cac59f13fb612869502527Swap Exact ETH F...84432672021-06-19 21:37:5891 days 22 hrs ago0x49a3f6bc905cf78a8a5117035cb307ae8bd796ecOUT PancakeSwap: Router v20.08555 BNB0.000607515
0xe0f8b20e16d944a4734551af9db5d1fa1cdf8e1d7dd9da9163ba33150cff012bSwap Exact ETH F...84418172021-06-19 20:25:2891 days 23 hrs ago0x49a3f6bc905cf78a8a5117035cb307ae8bd796ecOUT PancakeSwap: Router v20.0699 BNB0.000607515
0xa8a0b355b0c3ba5151368bc06c426b0d2dda60633f658a1bd8dba87a20c9a4a0Swap Exact ETH F...84418092021-06-19 20:25:0491 days 23 hrs ago0x49a3f6bc905cf78a8a5117035cb307ae8bd796ecOUT PancakeSwap: Router v20.08999 BNB0.000682515
0xb064c72f0e3504679b80f40dd0e72fdc37f6c50c1c5821985289155a196bef21Transfer84417302021-06-19 20:21:0791 days 23 hrs ago0x49a3f6bc905cf78a8a5117035cb307ae8bd796ecOUT0x6048abd56d523c81b163d7720afc592e41ad5ad04 BNB0.000105
0x23a126dc5caa21a5a25f4d5b74f0af35ee9274ac7d21d79679f5805b29d196edTransfer84408932021-06-19 19:39:1692 days 33 mins ago0x49a3f6bc905cf78a8a5117035cb307ae8bd796ecOUT0x4f25e9b4b47780898ced888774b4de5c3f7eb43a2 BNB0.000105
0x2737b9ef893d4fba9b21b9b9a69507cfdc63216b72a962ef14e72b192dce2e73Swap Exact ETH F...84396932021-06-19 18:39:1292 days 1 hr ago0x49a3f6bc905cf78a8a5117035cb307ae8bd796ecOUT PancakeSwap: Router v20.9999 BNB0.000599425
0x8bb0382bbbb4de9932d0c939d8b74de371549666c3ba85c5424e3f78268da01eTransfer84396132021-06-19 18:35:0392 days 1 hr ago0x49a3f6bc905cf78a8a5117035cb307ae8bd796ecOUT0x7f9201d3c8b7fb4234180045f401e4127ce37be410 BNB0.000105
0x1bff1606167c7031338f367b58c59bf993bf3c4c96547f29a3a0c2185afd97e4Swap Exact ETH F...84387122021-06-19 17:50:0092 days 2 hrs ago0x49a3f6bc905cf78a8a5117035cb307ae8bd796ecOUT PancakeSwap: Router v20.35 BNB0.000599825
0x7d157f4dd41677f9091a718eab4b239d00aaebf07d4fbeb141636b0a32269db5Swap Exact ETH F...84386942021-06-19 17:49:0692 days 2 hrs ago0x49a3f6bc905cf78a8a5117035cb307ae8bd796ecOUT PancakeSwap: Router v20.0899 BNB0.000599825
0x528397f99032730284008d293820d7c2bc58e7f9b1802f4aba289523f7dd9939Swap Exact ETH F...84386852021-06-19 17:48:3992 days 2 hrs ago0x49a3f6bc905cf78a8a5117035cb307ae8bd796ecOUT PancakeSwap: Router v20.111 BNB0.000674825
[ Download CSV Export 
Latest 1 internal transaction
Parent Txn Hash Block From To Value
0x10bf893316b67242f13e6e668d579cebfc31c2fdb671f93348c4f9f25e611cc184384562021-06-19 17:37:1292 days 2 hrs ago PancakeSwap: Router v20x49a3f6bc905cf78a8a5117035cb307ae8bd796ec37.699306698385648633 BNB
[ Download CSV Export 
Loading

Contract Name:
0 BNB

Compiler Version
0

Optimization Enabled:
0 BNB

Other Settings:
-NA-
Block Transaction Gas Used Reward
Age Block Fee Address BC Fee Address Voting Power Jailed Incoming
Block Uncle Number Difficulty Gas Used Reward
Loading
Loading
Make sure to use the "Vote Down" button for any spammy posts, and the "Vote Up" for interesting conversations.